createdAt,value
2018-02-07T00:02:57.763Z,1006.81
2018-02-07T00:12:57.813Z,1006.82
2018-02-07T00:22:57.720Z,1006.86
2018-02-07T00:32:57.765Z,1006.7
2018-02-07T00:42:57.819Z,1006.76
2018-02-07T00:52:57.832Z,1006.75
2018-02-07T01:02:57.793Z,1006.71
2018-02-07T01:12:57.883Z,1006.73
2018-02-07T01:22:57.844Z,1006.78
2018-02-07T01:32:57.821Z,1006.8
2018-02-07T01:42:57.859Z,1006.81
2018-02-07T01:52:57.907Z,1006.78
2018-02-07T02:02:57.879Z,1006.73
2018-02-07T02:12:57.842Z,1006.7
2018-02-07T02:22:57.908Z,1006.75
2018-02-07T02:32:57.850Z,1006.82
2018-02-07T02:42:57.928Z,1007
2018-02-07T02:52:57.898Z,1006.96
2018-02-07T03:02:57.938Z,1007.01
2018-02-07T03:12:57.912Z,1007.05
2018-02-07T03:22:57.888Z,1007.02
2018-02-07T03:32:57.928Z,1007
2018-02-07T03:42:57.889Z,1007.02
2018-02-07T03:52:57.960Z,1007.02
2018-02-07T04:02:57.905Z,1007.04
2018-02-07T04:12:57.982Z,1007.15
2018-02-07T04:22:57.946Z,1007.19
2018-02-07T04:32:58.012Z,1007.26
2018-02-07T04:42:57.978Z,1007.17
2018-02-07T04:52:57.937Z,1007.12
2018-02-07T05:02:57.997Z,1007.04
2018-02-07T05:12:57.937Z,1007.16
2018-02-07T05:22:58.007Z,1007.29
2018-02-07T05:32:57.988Z,1007.27
2018-02-07T05:42:57.978Z,1007.37
2018-02-07T05:52:57.998Z,1007.37
2018-02-07T06:02:57.965Z,1007.32
2018-02-07T06:12:58.029Z,1007.4
2018-02-07T06:22:58.014Z,1007.56
2018-02-07T06:32:58.066Z,1007.77
2018-02-07T06:42:57.995Z,1007.94
2018-02-07T06:52:58.108Z,1007.95
2018-02-07T07:02:58.052Z,1008.04
2018-02-07T07:12:58.109Z,1008.06
2018-02-07T07:22:58.086Z,1008.12
2018-02-07T07:32:58.120Z,1008.3
2018-02-07T07:42:58.083Z,1008.39
2018-02-07T07:52:58.074Z,1008.49
2018-02-07T08:02:58.101Z,1008.61
2018-02-07T08:12:58.055Z,1008.54
2018-02-07T08:22:58.134Z,1008.65
2018-02-07T08:32:58.072Z,1008.66
2018-02-07T08:42:58.135Z,1008.76
2018-02-07T08:52:58.107Z,1008.94
2018-02-07T09:02:58.170Z,1009
2018-02-07T09:12:58.130Z,1009.08
2018-02-07T09:22:58.111Z,1009.07
2018-02-07T09:32:58.156Z,1009.14
2018-02-07T09:42:58.120Z,1009.16
2018-02-07T09:52:58.162Z,1009.36
2018-02-07T10:02:58.129Z,1009.5
2018-02-07T10:12:58.214Z,1009.49
2018-02-07T10:22:58.159Z,1009.46
2018-02-07T10:32:58.159Z,1009.59
2018-02-07T10:42:59.306Z,1009.66
2018-02-07T10:52:58.167Z,1009.59
2018-02-07T11:02:58.241Z,1009.75
2018-02-07T11:12:58.172Z,1009.69
2018-02-07T11:22:58.229Z,1009.74
2018-02-07T11:32:58.194Z,1009.73
2018-02-07T11:42:58.256Z,1009.65
2018-02-07T11:52:58.221Z,1009.68
2018-02-07T12:02:58.268Z,1009.59
2018-02-07T12:12:58.252Z,1009.58
2018-02-07T12:22:58.312Z,1009.57
2018-02-07T12:32:58.290Z,1009.57
2018-02-07T12:42:58.225Z,1009.54
2018-02-07T12:52:58.278Z,1009.73
2018-02-07T13:02:58.237Z,1009.72
2018-02-07T13:12:58.307Z,1009.68
2018-02-07T13:22:58.276Z,1009.67
2018-02-07T13:32:58.343Z,1009.72
2018-02-07T13:42:58.296Z,1009.82
2018-02-07T13:52:58.348Z,1009.75
2018-02-07T14:02:58.353Z,1009.7
2018-02-07T14:12:58.368Z,1009.69
2018-02-07T14:22:58.345Z,1009.68
2018-02-07T14:32:58.412Z,1009.62
2018-02-07T14:42:58.369Z,1009.66
2018-02-07T14:52:58.348Z,1009.66
2018-02-07T15:02:58.403Z,1009.75
2018-02-07T15:12:58.456Z,1009.73
2018-02-07T15:22:58.421Z,1009.84
2018-02-07T15:32:58.375Z,1009.72
2018-02-07T15:42:58.441Z,1009.83
2018-02-07T15:52:58.420Z,1009.81
2018-02-07T16:02:58.471Z,1009.81
2018-02-07T16:12:58.410Z,1009.79
2018-02-07T16:22:58.382Z,1009.86
2018-02-07T16:32:58.453Z,1009.83
2018-02-07T16:42:58.451Z,1009.83
2018-02-07T16:52:58.472Z,1010
2018-02-07T17:02:58.448Z,1010.15
2018-02-07T17:12:58.482Z,1010.27
2018-02-07T17:22:58.446Z,1010.36
2018-02-07T17:32:58.525Z,1010.41
2018-02-07T17:42:58.480Z,1010.52
2018-02-07T17:52:58.576Z,1010.64
2018-02-07T18:02:58.519Z,1010.8
2018-02-07T18:12:58.470Z,1010.86
2018-02-07T18:22:58.532Z,1010.95
2018-02-07T18:32:58.502Z,1011.18
2018-02-07T18:42:58.555Z,1011.2
2018-02-07T18:52:58.512Z,1011.25
2018-02-07T19:02:58.581Z,1011.32
2018-02-07T19:12:58.536Z,1011.3
2018-02-07T19:22:58.597Z,1011.33
2018-02-07T19:32:58.522Z,1011.36
2018-02-07T19:42:58.531Z,1011.4
2018-02-07T19:52:58.584Z,1011.47
2018-02-07T20:02:58.537Z,1011.41
2018-02-07T20:12:58.613Z,1011.5
2018-02-07T20:22:58.577Z,1011.52
2018-02-07T20:32:58.616Z,1011.51
2018-02-07T20:42:58.615Z,1011.52
2018-02-07T20:52:58.645Z,1011.56
2018-02-07T21:02:58.619Z,1011.64
2018-02-07T21:12:58.651Z,1011.59
2018-02-07T21:22:58.632Z,1011.65
2018-02-07T21:32:58.681Z,1011.77
2018-02-07T21:42:58.665Z,1011.66
2018-02-07T21:52:58.593Z,1011.72
2018-02-07T22:02:58.667Z,1011.71
2018-02-07T22:12:58.611Z,1011.77
2018-02-07T22:22:58.744Z,1011.82
2018-02-07T22:32:58.693Z,1011.84
2018-02-07T22:42:58.819Z,1011.95
2018-02-07T22:52:58.678Z,1011.89
2018-02-07T23:02:58.636Z,1011.85
2018-02-07T23:12:58.726Z,1011.89
2018-02-07T23:22:58.681Z,1012.05
2018-02-07T23:32:58.758Z,1012.01
2018-02-07T23:42:58.726Z,1012.02
2018-02-07T23:52:58.784Z,1012.02
